Time;durP1;ratioP1;P1;durP2;ratioP2;P2;SDS_P1;SDS_P2;PMS_P1;PMS_P2;Temp;Humidity;BMP_temperature;BMP_pressure;BME280_temperature;BME280_humidity;BME280_pressure;Samples;Min_cycle;Max_cycle;Signal;HPM_P1;HPM_P2
2022/10/01 00:01:17;;;;;;;7.18;3.70;;;8.50;99.90;;;7.78;100.00;97114.03;6202948;23;20080;-67
2022/10/01 00:03:46;;;;;;;5.95;3.92;;;8.50;99.90;;;7.82;100.00;97110.41;6201850;23;20329;-67
2022/10/01 00:06:19;;;;;;;6.63;3.70;;;8.50;99.90;;;7.80;100.00;97111.34;6203513;23;20028;-67
2022/10/01 00:08:48;;;;;;;7.80;3.58;;;8.50;99.90;;;7.75;100.00;97122.75;6205511;23;20112;-66
2022/10/01 00:11:21;;;;;;;5.45;3.60;;;8.50;99.90;;;7.81;100.00;97115.66;6204459;23;20337;-66
2022/10/01 00:13:49;;;;;;;6.97;3.25;;;8.50;99.90;;;7.85;100.00;97114.63;6204800;23;20021;-67
2022/10/01 00:16:24;;;;;;;5.18;3.38;;;8.50;99.90;;;7.89;100.00;97113.59;6201473;23;20036;-66
2022/10/01 00:18:54;;;;;;;6.53;3.45;;;8.50;99.90;;;7.91;100.00;97110.06;6213476;23;20104;-67
2022/10/01 00:21:31;;;;;;;5.00;2.88;;;8.60;99.90;;;7.91;100.00;97107.47;6203364;23;20031;-67
2022/10/01 00:24:03;;;;;;;7.72;3.58;;;8.60;99.90;;;7.94;100.00;97097.00;6204778;23;20106;-66
2022/10/01 00:26:36;;;;;;;4.95;2.88;;;8.60;99.90;;;7.96;100.00;97095.22;6206986;23;20032;-68
2022/10/01 00:29:11;;;;;;;4.53;2.72;;;8.70;99.90;;;8.01;100.00;97084.69;6207343;23;20017;-67
2022/10/01 00:31:38;;;;;;;5.40;3.15;;;8.70;99.90;;;8.01;100.00;97083.84;6206066;23;20036;-68
2022/10/01 00:34:06;;;;;;;7.85;3.03;;;8.70;99.90;;;8.03;100.00;97094.94;6205016;23;20534;-69
2022/10/01 00:36:33;;;;;;;16.08;3.20;;;8.70;99.90;;;8.05;100.00;97082.81;6205021;23;20029;-67
2022/10/01 00:39:01;;;;;;;4.70;2.58;;;8.70;99.90;;;8.05;100.00;97081.09;6207516;23;20024;-69
2022/10/01 00:41:31;;;;;;;7.25;3.05;;;8.70;99.90;;;7.99;100.00;97075.31;6206624;23;20132;-67
2022/10/01 00:44:33;;;;;;;6.20;2.92;;;8.80;99.90;;;8.01;100.00;97076.09;6206553;23;20103;-69
2022/10/01 00:47:33;;;;;;;4.18;2.65;;;8.80;99.90;;;8.09;100.00;97074.03;6203055;23;20027;-69
2022/10/01 00:50:15;;;;;;;5.40;2.90;;;8.80;99.90;;;8.01;100.00;97065.75;6230145;23;20025;-68
2022/10/01 00:52:50;;;;;;;5.78;2.53;;;8.80;99.90;;;8.08;100.00;97072.34;6203612;23;20021;-67
2022/10/01 00:55:28;;;;;;;5.25;2.72;;;8.80;99.90;;;8.16;100.00;97065.97;6205747;23;20027;-69
2022/10/01 00:57:55;;;;;;;5.50;3.28;;;8.80;99.90;;;8.15;100.00;97050.53;6206755;23;20024;-69
2022/10/01 01:00:23;;;;;;;6.28;2.78;;;8.80;99.90;;;8.16;100.00;97052.19;6205869;23;20067;-68
2022/10/01 01:02:51;;;;;;;6.43;2.88;;;8.90;99.90;;;8.14;100.00;97049.69;6204293;23;20480;-68
2022/10/01 01:05:18;;;;;;;6.50;2.15;;;8.90;99.90;;;8.07;100.00;97061.16;6204372;23;20782;-69
2022/10/01 01:07:49;;;;;;;6.13;2.35;;;8.90;99.90;;;8.18;100.00;97052.97;6205570;23;20637;-68
2022/10/01 01:10:49;;;;;;;4.63;2.20;;;8.90;99.90;;;8.12;100.00;97051.50;6205176;23;20030;-68
2022/10/01 01:13:38;;;;;;;4.85;2.35;;;8.90;99.90;;;8.22;100.00;97033.84;6207789;23;20020;-68
2022/10/01 01:16:46;;;;;;;4.88;1.90;;;8.90;99.90;;;8.13;100.00;97032.47;6205982;23;20017;-67
2022/10/01 01:19:23;;;;;;;3.75;1.90;;;9.00;99.90;;;8.19;100.00;97033.97;6174373;23;20062;-68
2022/10/01 01:21:59;;;;;;;3.25;2.10;;;9.00;99.90;;;8.26;100.00;97025.06;6204219;23;20028;-68
2022/10/01 01:24:44;;;;;;;4.60;1.90;;;9.00;99.90;;;8.28;100.00;97015.50;6205682;23;20040;-69
2022/10/01 01:27:24;;;;;;;5.25;2.05;;;9.00;99.90;;;8.28;100.00;97028.44;6207519;23;20055;-68
2022/10/01 01:30:07;;;;;;;5.10;1.88;;;9.00;99.90;;;8.31;100.00;97010.19;6204426;23;20120;-67
2022/10/01 01:33:04;;;;;;;4.10;1.55;;;9.10;99.90;;;8.31;100.00;97009.34;6228397;23;20021;-68
2022/10/01 01:35:38;;;;;;;5.50;2.58;;;9.10;99.90;;;8.30;100.00;97015.41;6204321;23;20468;-68
2022/10/01 01:38:17;;;;;;;5.25;1.83;;;9.00;99.90;;;8.31;100.00;97005.00;6205301;23;20032;-69
2022/10/01 01:40:50;;;;;;;5.38;2.22;;;9.10;99.90;;;8.35;100.00;97000.56;6205068;23;20487;-67
2022/10/01 01:43:24;;;;;;;3.67;1.75;;;9.10;99.90;;;8.43;100.00;97005.44;6204880;23;20384;-68
2022/10/01 01:45:54;;;;;;;6.10;2.50;;;9.10;99.90;;;8.43;100.00;97003.69;6204266;23;20033;-68
2022/10/01 01:48:23;;;;;;;5.15;1.92;;;9.10;99.90;;;8.45;100.00;96996.69;6208107;23;20503;-68
2022/10/01 01:50:55;;;;;;;5.03;2.30;;;9.20;99.90;;;8.40;100.00;96998.66;6201398;23;20024;-67
2022/10/01 01:53:23;;;;;;;5.90;2.03;;;9.20;99.90;;;8.41;100.00;96989.97;6206556;23;20044;-67
2022/10/01 01:55:52;;;;;;;5.22;2.10;;;9.20;99.90;;;8.43;100.00;96980.41;6204187;23;20017;-68
2022/10/01 01:58:19;;;;;;;4.40;2.53;;;9.20;99.90;;;8.53;100.00;96980.81;6205252;23;20024;-67
2022/10/01 02:00:53;;;;;;;3.35;2.08;;;9.20;99.90;;;8.54;100.00;96972.19;6205096;23;20028;-67
2022/10/01 02:03:24;;;;;;;5.07;2.20;;;9.30;99.90;;;8.55;100.00;96964.34;6205269;23;20039;-67
2022/10/01 02:06:15;;;;;;;3.72;1.90;;;9.30;99.90;;;8.52;100.00;96963.66;6202825;23;20016;-66
2022/10/01 02:09:16;;;;;;;4.95;2.10;;;9.30;99.90;;;8.59;100.00;96954.69;6204854;23;20360;-67
2022/10/01 02:12:06;;;;;;;3.70;1.80;;;9.40;99.90;;;8.59;100.00;96963.28;6203522;23;20052;-66
2022/10/01 02:14:36;;;;;;;5.95;2.08;;;9.30;99.90;;;8.65;100.00;96954.44;6205768;23;20040;-66
2022/10/01 02:17:28;;;;;;;5.40;2.33;;;9.40;99.90;;;8.68;100.00;96956.88;6204589;23;20182;-68
2022/10/01 02:20:02;;;;;;;4.60;1.95;;;9.40;99.90;;;8.67;100.00;96944.03;6204224;23;20675;-67
2022/10/01 02:22:41;;;;;;;3.90;2.00;;;9.40;99.90;;;8.68;100.00;96937.94;6204180;23;20025;-67
2022/10/01 02:25:10;;;;;;;3.47;2.10;;;9.40;99.90;;;8.73;100.00;96948.91;6205520;23;20032;-67
2022/10/01 02:27:59;;;;;;;4.25;1.90;;;9.50;99.90;;;8.75;100.00;96950.50;6205389;23;20481;-67
2022/10/01 02:30:31;;;;;;;5.50;1.58;;;9.50;99.90;;;8.84;100.00;96945.84;6205793;23;20040;-67
2022/10/01 02:32:59;;;;;;;3.58;1.75;;;9.50;99.90;;;8.83;100.00;96946.75;6204369;23;20035;-67
2022/10/01 02:35:31;;;;;;;4.10;1.70;;;9.60;99.90;;;8.87;100.00;96940.50;6202580;23;20102;-67
2022/10/01 02:38:00;;;;;;;3.53;1.73;;;9.60;99.90;;;8.86;100.00;96937.09;6201301;23;20050;-67
2022/10/01 02:40:32;;;;;;;3.22;1.73;;;9.60;99.90;;;8.90;100.00;96938.63;6202548;23;20079;-67
2022/10/01 02:43:06;;;;;;;4.03;1.75;;;9.60;99.90;;;8.94;100.00;96926.38;6203908;23;20028;-68
2022/10/01 02:45:36;;;;;;;4.57;1.40;;;9.70;99.90;;;8.97;100.00;96923.66;6203012;23;20120;-67
2022/10/01 02:48:07;;;;;;;2.67;1.75;;;9.70;99.90;;;9.04;100.00;96903.50;6203528;23;20052;-67
2022/10/01 02:50:41;;;;;;;4.10;1.75;;;9.70;99.90;;;9.07;100.00;96914.53;6202549;23;20028;-67
2022/10/01 02:53:36;;;;;;;3.85;1.42;;;9.80;99.90;;;9.06;100.00;96919.81;6206078;23;20435;-67
2022/10/01 02:56:05;;;;;;;4.70;1.60;;;9.80;99.90;;;9.00;100.00;96921.75;6203752;23;20088;-67
2022/10/01 02:58:32;;;;;;;2.55;1.30;;;9.80;99.90;;;9.06;100.00;96910.28;6205264;23;20124;-66
2022/10/01 03:00:59;;;;;;;3.40;1.45;;;9.80;99.90;;;9.17;100.00;96896.84;6203925;23;20107;-68
2022/10/01 03:03:26;;;;;;;3.53;1.50;;;9.90;99.90;;;9.11;100.00;96897.97;6204636;23;20031;-68
2022/10/01 03:05:53;;;;;;;3.22;1.60;;;9.90;99.90;;;9.10;100.00;96905.78;6204154;23;20123;-68
2022/10/01 03:08:20;;;;;;;4.65;1.50;;;9.90;99.90;;;9.16;100.00;96893.38;6205307;23;20028;-66
2022/10/01 03:10:47;;;;;;;4.95;1.52;;;10.00;99.90;;;9.11;100.00;96897.97;6204968;23;20021;-66
2022/10/01 03:13:14;;;;;;;4.00;1.60;;;9.90;99.90;;;9.10;100.00;96898.88;6206693;23;20027;-66
2022/10/01 03:15:40;;;;;;;4.22;1.38;;;10.00;99.90;;;9.08;100.00;96910.22;6204646;23;20411;-68
2022/10/01 03:18:07;;;;;;;3.65;1.58;;;9.90;99.90;;;9.03;100.00;96912.16;6204754;23;20495;-67
2022/10/01 03:20:34;;;;;;;3.22;1.40;;;9.90;99.90;;;8.99;100.00;96916.66;6229883;23;20040;-68
2022/10/01 03:23:01;;;;;;;5.55;1.70;;;9.80;99.90;;;8.88;100.00;96924.91;6206504;23;20035;-67
2022/10/01 03:25:28;;;;;;;3.72;1.88;;;9.70;99.90;;;8.84;100.00;96938.91;6205824;23;20552;-68
2022/10/01 03:27:55;;;;;;;6.88;1.90;;;9.50;99.90;;;8.72;100.00;96929.13;6205243;23;20074;-68
2022/10/01 03:30:22;;;;;;;4.82;1.90;;;9.40;99.90;;;8.72;100.00;96927.38;6204773;23;20187;-68
2022/10/01 03:32:49;;;;;;;6.43;2.55;;;9.40;99.90;;;8.62;100.00;96933.88;6203436;23;20020;-68
2022/10/01 03:35:16;;;;;;;3.45;1.95;;;9.20;99.90;;;8.58;100.00;96935.75;6206664;23;20040;-68
2022/10/01 03:37:43;;;;;;;4.55;2.05;;;9.20;99.90;;;8.52;100.00;96924.84;6205338;23;20060;-68
2022/10/01 03:40:10;;;;;;;9.77;2.42;;;9.20;99.90;;;8.53;100.00;96924.78;6203190;23;20021;-68
2022/10/01 03:42:37;;;;;;;5.45;2.30;;;9.10;99.90;;;8.44;100.00;96922.63;6206055;23;20094;-67
2022/10/01 03:45:04;;;;;;;7.53;2.60;;;9.10;99.90;;;8.44;100.00;96906.22;6203762;23;20031;-68
2022/10/01 03:47:31;;;;;;;7.55;2.88;;;9.10;99.90;;;8.43;100.00;96910.56;6204873;23;20025;-68
2022/10/01 03:49:57;;;;;;;4.88;2.55;;;9.10;99.90;;;8.45;100.00;96906.16;6215831;23;20021;-67
2022/10/01 03:52:24;;;;;;;4.65;2.97;;;9.00;99.90;;;8.35;100.00;96907.47;6206608;23;20024;-68
2022/10/01 03:54:51;;;;;;;3.63;3.03;;;9.00;99.90;;;8.31;100.00;96913.69;6203520;23;20020;-67
2022/10/01 03:57:18;;;;;;;6.50;2.95;;;9.00;99.90;;;8.31;100.00;96908.50;6206183;23;20025;-68
2022/10/01 03:59:45;;;;;;;7.22;3.10;;;9.10;99.90;;;8.40;100.00;96904.69;6208029;23;20128;-68
2022/10/01 04:02:12;;;;;;;8.95;3.25;;;9.00;99.90;;;8.34;100.00;96903.19;6204797;23;20332;-68
2022/10/01 04:04:39;;;;;;;6.60;3.40;;;9.00;99.90;;;8.24;100.00;96915.69;6207353;23;20031;-68
2022/10/01 04:07:06;;;;;;;5.35;3.17;;;9.00;99.90;;;8.31;100.00;96905.94;6206301;23;20020;-67
2022/10/01 04:09:33;;;;;;;5.85;3.22;;;9.00;99.90;;;8.28;100.00;96909.50;6207963;23;20494;-67
2022/10/01 04:12:00;;;;;;;5.35;3.40;;;9.00;99.90;;;8.32;100.00;96915.34;6207020;23;20059;-68
2022/10/01 04:14:27;;;;;;;6.03;3.90;;;9.00;99.90;;;8.24;100.00;96915.69;6207850;23;20016;-68
2022/10/01 04:16:53;;;;;;;6.00;3.38;;;9.10;99.90;;;8.26;100.00;96913.06;6205042;23;20491;-67
2022/10/01 04:19:20;;;;;;;8.15;3.88;;;9.00;99.90;;;8.31;100.00;96899.00;6207445;23;20036;-68
2022/10/01 04:21:47;;;;;;;8.05;3.50;;;9.00;99.90;;;8.31;100.00;96898.16;6204805;23;20888;-68
2022/10/01 04:24:14;;;;;;;6.75;3.97;;;9.00;99.90;;;8.34;100.00;96904.03;6207357;23;20032;-68
2022/10/01 04:26:41;;;;;;;4.82;3.20;;;9.00;99.90;;;8.35;100.00;96902.31;6208042;23;20025;-67
2022/10/01 04:29:09;;;;;;;5.82;3.53;;;9.00;99.90;;;8.28;100.00;96909.50;6206380;23;20020;-68
2022/10/01 04:31:36;;;;;;;5.32;3.10;;;9.00;99.90;;;8.37;100.00;96903.91;6205687;23;20017;-68
2022/10/01 04:34:03;;;;;;;5.97;3.67;;;9.10;99.90;;;8.34;100.00;96883.34;6207387;23;20025;-67
2022/10/01 04:36:30;;;;;;;6.82;4.00;;;9.00;99.90;;;8.36;100.00;96894.47;6205436;23;20021;-68
2022/10/01 04:38:58;;;;;;;8.30;4.15;;;9.00;99.90;;;8.35;100.00;96910.91;6205554;23;20036;-67
2022/10/01 04:41:29;;;;;;;6.60;3.70;;;9.00;99.90;;;8.34;100.00;96892.84;6206892;23;20029;-67
2022/10/01 04:43:58;;;;;;;5.80;4.10;;;9.00;99.90;;;8.35;100.00;96905.72;6204303;23;20356;-67
2022/10/01 04:46:28;;;;;;;9.30;4.63;;;9.10;99.90;;;8.34;100.00;96900.59;6204984;23;20139;-68
2022/10/01 04:48:55;;;;;;;5.50;3.80;;;9.10;99.90;;;8.34;100.00;96878.16;6208346;23;20052;-68
2022/10/01 04:51:21;;;;;;;5.15;3.63;;;9.00;99.90;;;8.36;100.00;96909.13;6206657;23;20024;-67
2022/10/01 04:53:48;;;;;;;7.38;3.92;;;9.00;99.90;;;8.33;100.00;96876.50;6206536;23;20351;-68
2022/10/01 04:56:15;;;;;;;6.63;3.75;;;9.00;99.90;;;8.34;100.00;96883.34;6207160;23;20095;-68
2022/10/01 04:58:42;;;;;;;8.27;3.28;;;9.00;99.90;;;8.37;100.00;96898.75;6206971;23;20025;-68
2022/10/01 05:01:09;;;;;;;6.82;4.20;;;9.10;99.90;;;8.35;100.00;96881.63;6203247;23;20459;-68
2022/10/01 05:03:36;;;;;;;5.55;3.17;;;9.00;99.90;;;8.32;100.00;96889.50;6206447;23;20064;-67
2022/10/01 05:06:03;;;;;;;5.88;3.65;;;9.00;99.90;;;8.34;100.00;96870.41;6204523;23;20356;-68
2022/10/01 05:08:30;;;;;;;5.57;3.90;;;9.00;99.90;;;8.35;100.00;96873.84;6206560;23;20036;-68
2022/10/01 05:10:59;;;;;;;6.30;3.42;;;9.10;99.90;;;8.37;100.00;96879.81;6205614;23;20436;-67
2022/10/01 05:13:28;;;;;;;4.47;3.08;;;9.10;99.90;;;8.33;100.00;96876.50;6207668;23;20040;-68
2022/10/01 05:15:56;;;;;;;6.93;3.90;;;9.10;99.90;;;8.36;100.00;96872.94;6203868;23;20343;-68
2022/10/01 05:18:23;;;;;;;6.82;3.90;;;9.10;99.90;;;8.39;100.00;96893.47;6217381;23;20035;-68
2022/10/01 05:20:50;;;;;;;6.10;3.35;;;9.00;99.90;;;8.40;100.00;96896.94;6204785;23;20025;-68
2022/10/01 05:23:17;;;;;;;7.68;3.53;;;9.00;99.90;;;8.35;100.00;96900.53;6216606;23;20074;-68
2022/10/01 05:25:45;;;;;;;7.00;4.05;;;9.00;99.90;;;8.35;100.00;96894.53;6206779;23;20037;-67
2022/10/01 05:28:13;;;;;;;6.18;3.60;;;9.00;99.90;;;8.30;100.00;96907.69;6206048;23;20020;-67
2022/10/01 05:30:46;;;;;;;5.72;3.65;;;9.10;99.90;;;8.36;100.00;96907.38;6204667;23;20024;-67
2022/10/01 05:33:13;;;;;;;7.50;3.60;;;9.00;99.90;;;8.37;100.00;96905.66;6204823;23;20020;-68
2022/10/01 05:35:40;;;;;;;7.97;3.40;;;9.00;99.90;;;8.31;100.00;96909.34;6204925;23;20020;-68
2022/10/01 05:38:07;;;;;;;5.47;3.28;;;9.00;99.90;;;8.31;100.00;96893.81;6205059;23;20036;-67
2022/10/01 05:40:34;;;;;;;4.85;3.55;;;9.00;99.90;;;8.34;100.00;96898.03;6206753;23;20028;-68
2022/10/01 05:43:03;;;;;;;5.97;3.90;;;9.00;99.90;;;8.36;100.00;96914.31;6216491;23;20035;-68
2022/10/01 05:45:31;;;;;;;5.00;3.40;;;9.00;99.90;;;8.30;100.00;96918.03;6205198;23;20499;-68
2022/10/01 05:48:01;;;;;;;5.18;3.70;;;9.00;99.90;;;8.38;100.00;96917.66;6204110;23;20031;-67
2022/10/01 05:50:31;;;;;;;6.22;3.65;;;9.00;99.90;;;8.31;100.00;96911.09;6203936;23;20560;-66
2022/10/01 05:52:59;;;;;;;8.75;4.30;;;9.00;99.90;;;8.27;100.00;96912.13;6204569;23;20020;-67
2022/10/01 05:55:33;;;;;;;4.90;3.40;;;9.00;99.90;;;8.29;100.00;96908.56;6206907;23;20021;-68
2022/10/01 05:58:11;;;;;;;7.47;4.15;;;9.00;99.90;;;8.27;100.00;96925.88;6203618;23;20032;-67
2022/10/01 06:00:40;;;;;;;5.50;2.80;;;9.00;99.90;;;8.31;100.00;96916.25;6203717;23;20032;-68
2022/10/01 06:03:08;;;;;;;10.20;3.90;;;9.00;99.90;;;8.25;100.00;96929.44;6229160;23;20035;-68
2022/10/01 06:05:36;;;;;;;4.80;3.55;;;9.00;99.90;;;8.22;100.00;96921.84;6206926;23;20517;-68
2022/10/01 06:08:08;;;;;;;5.50;3.88;;;9.00;99.90;;;8.26;100.00;96918.22;6207304;23;20031;-67
2022/10/01 06:10:36;;;;;;;6.55;4.03;;;9.00;99.90;;;8.32;100.00;96916.19;6206550;23;20028;-68
2022/10/01 06:13:04;;;;;;;6.05;2.95;;;9.00;99.90;;;8.28;100.00;96935.34;6206064;23;20035;-67
2022/10/01 06:15:36;;;;;;;7.20;3.47;;;9.00;99.90;;;8.33;100.00;96923.03;6207185;23;20441;-68
2022/10/01 06:18:07;;;;;;;5.07;3.27;;;9.00;99.90;;;8.32;100.00;96931.69;6203731;23;20024;-67
2022/10/01 06:20:34;;;;;;;6.95;3.50;;;9.00;99.90;;;8.29;100.00;96947.34;6207473;23;20020;-67
2022/10/01 06:23:04;;;;;;;5.80;3.20;;;9.00;99.90;;;8.26;100.00;96934.56;6205207;23;20017;-67
2022/10/01 06:25:33;;;;;;;6.18;3.55;;;9.00;99.90;;;8.30;100.00;96938.72;6205471;23;20051;-67
2022/10/01 06:28:01;;;;;;;4.03;2.67;;;9.10;99.90;;;8.32;100.00;96941.19;6207429;23;20020;-68
2022/10/01 06:30:30;;;;;;;4.95;3.35;;;9.00;99.90;;;8.34;100.00;96942.81;6206983;23;20345;-68
2022/10/01 06:33:13;;;;;;;3.50;2.65;;;9.00;99.90;;;8.29;100.00;96959.44;6203315;23;20029;-67
2022/10/01 06:35:46;;;;;;;3.72;2.80;;;9.00;99.90;;;8.33;100.00;96948.91;6207481;23;20020;-68
2022/10/01 06:38:15;;;;;;;5.65;2.95;;;9.10;99.90;;;8.31;100.00;96975.75;6205605;23;20028;-68
2022/10/01 06:40:42;;;;;;;3.40;2.20;;;9.10;99.90;;;8.36;100.00;96973.78;6204713;23;20025;-67
2022/10/01 06:43:09;;;;;;;4.80;2.63;;;9.10;99.90;;;8.33;100.00;96963.59;6203942;23;20024;-69
2022/10/01 06:45:39;;;;;;;7.18;2.15;;;9.20;99.90;;;8.36;100.00;96999.66;6205582;23;20029;-68
2022/10/01 06:48:07;;;;;;;4.38;2.53;;;9.10;99.90;;;8.42;100.00;96986.50;6204878;23;20024;-68
2022/10/01 06:50:34;;;;;;;4.78;2.38;;;9.10;99.90;;;8.43;100.00;96997.66;6205887;23;20017;-67
2022/10/01 06:53:01;;;;;;;5.30;2.30;;;9.20;99.90;;;8.48;100.00;97006.91;6206532;23;20329;-68
2022/10/01 06:55:31;;;;;;;4.22;2.20;;;9.20;99.90;;;8.48;100.00;97019.81;6206803;23;20062;-67
2022/10/01 06:58:14;;;;;;;5.55;2.47;;;9.20;99.90;;;8.46;100.00;96987.19;6204926;23;20096;-68
2022/10/01 07:00:42;;;;;;;3.25;1.85;;;9.20;99.90;;;8.51;100.00;96988.69;6205050;23;20472;-67
2022/10/01 07:03:19;;;;;;;2.53;1.90;;;9.20;99.90;;;8.55;100.00;96985.06;6204258;23;20272;-67
2022/10/01 07:05:48;;;;;;;3.13;1.90;;;9.30;99.90;;;8.54;100.00;96973.00;6204987;23;20704;-67
2022/10/01 07:08:15;;;;;;;3.25;1.63;;;9.30;99.90;;;8.65;100.00;96949.25;6201354;23;20025;-67
2022/10/01 07:10:44;;;;;;;4.60;1.98;;;9.30;99.90;;;8.61;100.00;96945.13;6204497;23;20364;-67
2022/10/01 07:13:17;;;;;;;4.03;1.73;;;9.30;99.90;;;8.63;100.00;96958.84;6206063;23;20016;-68
2022/10/01 07:15:45;;;;;;;2.85;1.88;;;9.30;99.90;;;8.62;100.00;96959.75;6207009;23;20555;-67
2022/10/01 07:18:13;;;;;;;2.50;1.33;;;9.30;99.90;;;8.62;100.00;96952.00;6203782;23;20044;-67
2022/10/01 07:20:40;;;;;;;2.67;1.35;;;9.30;99.90;;;8.70;100.00;96960.22;6205597;23;20356;-68
2022/10/01 07:23:14;;;;;;;3.65;1.50;;;9.30;99.90;;;8.66;100.00;96963.03;6206708;23;20044;-68
2022/10/01 07:25:42;;;;;;;3.42;2.33;;;9.30;99.90;;;8.69;100.00;96968.91;6207235;23;20020;-68
2022/10/01 07:28:18;;;;;;;2.55;1.23;;;9.30;99.90;;;8.65;100.00;96992.41;6202963;23;20091;-67
2022/10/01 07:31:10;;;;;;;4.05;2.00;;;9.30;99.90;;;8.63;100.00;96987.28;6202421;23;20099;-68
2022/10/01 07:33:38;;;;;;;2.30;1.40;;;9.40;99.90;;;8.70;100.00;96973.16;6205993;23;20510;-67
2022/10/01 07:36:08;;;;;;;3.63;1.70;;;9.40;99.90;;;8.75;100.00;96989.31;6203148;23;20025;-68
2022/10/01 07:38:35;;;;;;;2.70;1.45;;;9.40;99.90;;;8.73;100.00;97005.81;6206057;23;20021;-68
2022/10/01 07:41:02;;;;;;;2.60;1.40;;;9.40;99.90;;;8.75;100.00;97014.38;6205301;23;20100;-69
2022/10/01 07:43:33;;;;;;;1.85;1.00;;;9.40;99.90;;;8.68;100.00;97013.78;6204650;23;20360;-69
2022/10/01 07:46:02;;;;;;;2.00;1.20;;;9.60;99.90;;;8.71;100.00;97041.28;6202469;23;20032;-69
2022/10/01 07:48:29;;;;;;;4.50;1.10;;;9.50;99.90;;;8.73;100.00;97022.19;6201367;23;20483;-68
2022/10/01 07:50:56;;;;;;;2.05;1.10;;;9.40;99.90;;;8.75;100.00;97042.81;6202508;23;20040;-68
2022/10/01 07:53:24;;;;;;;2.15;0.90;;;9.50;99.90;;;8.76;100.00;97022.06;6206570;23;20021;-68
2022/10/01 07:55:51;;;;;;;2.03;0.90;;;9.50;99.90;;;8.73;100.00;97040.28;6203637;23;20022;-67
2022/10/01 07:58:20;;;;;;;3.80;1.23;;;9.50;99.90;;;8.77;100.00;97003.03;6205638;23;20021;-67
2022/10/01 08:00:47;;;;;;;2.78;1.10;;;9.50;99.90;;;8.74;100.00;96995.41;6202741;23;20027;-67
2022/10/01 08:03:14;;;;;;;3.25;1.17;;;9.50;99.90;;;8.82;100.00;96953.66;6201777;23;20021;-68
2022/10/01 08:05:42;;;;;;;1.85;0.82;;;9.50;99.90;;;8.87;100.00;96969.84;6205604;23;20029;-68
2022/10/01 08:08:09;;;;;;;1.88;0.90;;;9.50;99.90;;;8.88;100.00;96996.56;6201941;23;20469;-69
2022/10/01 08:10:38;;;;;;;1.92;1.00;;;9.50;99.90;;;8.87;100.00;96972.44;6205872;23;20024;-69
2022/10/01 08:13:14;;;;;;;2.65;1.00;;;9.50;99.90;;;8.92;100.00;96978.22;6206470;23;20036;-69
2022/10/01 08:15:53;;;;;;;1.65;0.80;;;9.60;99.90;;;8.97;100.00;97003.91;6204182;23;20032;-69
2022/10/01 08:18:21;;;;;;;2.00;0.93;;;9.60;99.90;;;8.96;100.00;97002.22;6205435;23;20043;-69
2022/10/01 08:20:49;;;;;;;1.52;1.08;;;9.70;99.90;;;8.97;100.00;97006.50;6206203;23;20024;-69
2022/10/01 08:23:16;;;;;;;2.50;0.90;;;9.70;99.90;;;8.97;100.00;97037.56;6206396;23;20689;-69
2022/10/01 08:25:44;;;;;;;2.83;0.80;;;9.70;99.90;;;9.00;100.00;97025.28;6207054;23;20093;-69
2022/10/01 08:28:11;;;;;;;1.33;0.68;;;9.70;99.90;;;9.06;100.00;96998.31;6202240;23;20055;-69
2022/10/01 08:30:41;;;;;;;1.73;0.68;;;9.70;99.90;;;9.06;100.00;97007.81;6205443;23;20033;-69
2022/10/01 08:33:11;;;;;;;2.90;0.90;;;9.80;99.90;;;9.11;100.00;97013.63;6204337;23;20025;-69
2022/10/01 08:35:42;;;;;;;2.03;0.90;;;9.80;99.90;;;9.07;100.00;97014.66;6205151;23;20027;-68
2022/10/01 08:38:10;;;;;;;1.40;0.70;;;9.80;99.90;;;9.08;100.00;97019.78;6204820;23;20024;-68
2022/10/01 08:40:46;;;;;;;2.92;0.82;;;9.90;99.90;;;9.11;100.00;96992.91;6203943;23;20025;-69
2022/10/01 08:43:37;;;;;;;1.10;0.70;;;9.90;99.90;;;9.10;100.00;96992.09;6207054;23;20088;-69
2022/10/01 08:46:17;;;;;;;1.00;0.70;;;9.90;99.90;;;9.15;100.00;96997.88;6204134;23;20020;-69
2022/10/01 08:49:12;;;;;;;1.23;0.70;;;9.90;99.90;;;9.16;100.00;96990.94;6207456;23;20036;-69
2022/10/01 08:52:02;;;;;;;1.00;0.70;;;9.90;99.90;;;9.17;100.00;96990.06;6206307;23;20024;-68
2022/10/01 08:54:56;;;;;;;2.22;0.70;;;9.90;99.90;;;9.20;100.00;96995.91;6207696;23;20031;-68
2022/10/01 08:57:29;;;;;;;1.85;0.90;;;9.90;99.90;;;9.16;100.00;97006.47;6205075;23;20036;-68
2022/10/01 09:00:07;;;;;;;4.00;2.22;;;10.00;99.90;;;9.20;100.00;96992.50;6207050;23;20405;-68
2022/10/01 09:02:45;;;;;;;1.67;0.80;;;9.90;99.90;;;9.21;100.00;97010.56;6205322;23;20035;-69
2022/10/01 09:05:50;;;;;;;1.80;0.70;;;10.00;99.90;;;9.21;100.00;97015.72;6206040;23;20104;-68
2022/10/01 09:08:42;;;;;;;4.95;1.65;;;10.10;99.90;;;9.29;100.00;97005.00;6201203;23;20024;-67
2022/10/01 09:11:53;;;;;;;2.92;0.70;;;10.10;99.90;;;9.21;100.00;97007.09;6206618;23;20067;-68
2022/10/01 09:15:00;;;;;;;1.85;0.75;;;10.00;99.90;;;9.23;100.00;97026.00;6205135;23;20161;-71
2022/10/01 09:17:30;;;;;;;2.95;0.63;;;10.10;99.90;;;9.26;100.00;97037.97;6202615;23;20043;-68
2022/10/01 09:20:10;;;;;;;3.45;0.90;;;10.10;99.90;;;9.26;100.00;97040.56;6204743;23;20044;-68
2022/10/01 09:23:02;;;;;;;2.15;0.70;;;10.10;99.90;;;9.35;100.00;97030.63;6205317;23;20029;-68
2022/10/01 09:25:30;;;;;;;1.90;0.80;;;10.10;99.90;;;9.36;100.00;97049.59;6201600;23;20392;-68
2022/10/01 09:28:16;;;;;;;2.60;0.93;;;10.20;99.90;;;9.39;100.00;97049.44;6201109;23;20028;-68
2022/10/01 09:31:20;;;;;;;2.10;0.80;;;10.20;99.90;;;9.36;100.00;97027.13;6202873;23;20451;-68
2022/10/01 09:33:58;;;;;;;2.97;0.80;;;10.30;99.90;;;9.42;100.00;97026.84;6203253;23;20091;-68
2022/10/01 09:37:13;;;;;;;1.38;0.70;;;10.30;99.90;;;9.48;100.00;97030.88;6201386;23;20021;-68
2022/10/01 09:39:53;;;;;;;1.77;0.90;;;10.30;99.90;;;9.41;100.00;97047.63;6205353;23;20487;-68
2022/10/01 09:42:25;;;;;;;3.10;1.20;;;10.30;99.90;;;9.37;100.00;97064.22;6203618;23;20577;-68
2022/10/01 09:44:53;;;;;;;0.60;0.40;;;10.30;99.90;;;9.31;100.00;97055.00;6202144;23;20094;-68
2022/10/01 09:47:24;;;;;;;0.60;0.40;;;10.40;99.90;;;9.41;100.00;97034.66;6204287;23;20101;-68
2022/10/01 09:49:51;;;;;;;3.60;0.90;;;10.30;99.90;;;9.46;100.00;97030.09;6202896;23;20028;-68
2022/10/01 09:52:33;;;;;;;2.75;1.15;;;10.30;99.90;;;9.55;100.00;97040.03;6205676;23;20013;-68
2022/10/01 09:55:25;;;;;;;1.42;0.57;;;10.40;99.90;;;9.58;100.00;97037.31;6205593;23;20028;-68
2022/10/01 09:57:55;;;;;;;1.02;0.50;;;10.40;99.90;;;9.61;100.00;97039.75;6201715;23;20120;-68
2022/10/01 10:00:26;;;;;;;0.70;0.38;;;10.40;99.90;;;9.66;100.00;97030.94;6202831;23;20039;-70
2022/10/01 10:02:55;;;;;;;0.30;0.30;;;10.50;99.90;;;9.55;100.00;97054.75;6204328;23;20031;-70
2022/10/01 10:05:28;;;;;;;0.85;0.50;;;10.70;99.90;;;9.67;100.00;97054.19;6200736;23;20028;-68
2022/10/01 10:08:13;;;;;;;1.88;0.70;;;10.70;99.90;;;9.76;100.00;97029.56;6184482;23;20024;-68
2022/10/01 10:11:07;;;;;;;1.63;0.55;;;10.80;99.90;;;9.73;100.00;97082.38;6201996;23;20363;-68
2022/10/01 10:13:50;;;;;;;0.80;0.40;;;10.70;99.90;;;9.80;100.00;97080.34;6203264;23;20024;-68
2022/10/01 10:16:25;;;;;;;0.43;0.30;;;10.70;99.90;;;9.83;100.00;97046.53;6203997;23;20658;-69
2022/10/01 10:19:24;;;;;;;0.60;0.40;;;10.70;99.90;;;9.86;100.00;97032.56;6219166;23;20099;-69
2022/10/01 10:22:08;;;;;;;0.50;0.30;;;10.70;99.90;;;9.79;100.00;97058.78;6199952;23;20021;-69
2022/10/01 10:24:35;;;;;;;2.35;1.10;;;10.80;99.90;;;9.91;100.00;97059.09;6205115;23;20075;-68
2022/10/01 10:27:24;;;;;;;2.10;0.50;;;10.80;99.90;;;9.94;100.00;97036.44;6206056;23;20016;-69
2022/10/01 10:30:14;;;;;;;0.77;0.43;;;10.80;99.90;;;9.99;100.00;97055.25;6208136;23;20103;-69
2022/10/01 10:32:44;;;;;;;0.75;0.40;;;10.70;99.90;;;9.89;100.00;97064.34;6206436;23;20048;-69
2022/10/01 10:35:18;;;;;;;0.77;0.40;;;10.80;99.90;;;9.84;100.00;97022.28;6206959;23;20025;-69
2022/10/01 10:37:52;;;;;;;0.40;0.30;;;10.70;99.90;;;9.91;100.00;97070.31;6206727;23;20023;-69
2022/10/01 10:40:26;;;;;;;1.20;0.38;;;10.80;99.90;;;9.93;100.00;97054.69;6207065;23;20052;-69
2022/10/01 10:42:57;;;;;;;0.70;0.50;;;10.80;99.90;;;10.02;100.00;97073.22;6205637;23;20032;-69
2022/10/01 10:45:37;;;;;;;0.70;0.40;;;10.80;99.90;;;9.97;100.00;97041.50;6206673;23;20035;-69
2022/10/01 10:48:11;;;;;;;0.93;0.43;;;10.80;99.90;;;9.88;100.00;97057.50;6206095;23;20083;-69
2022/10/01 10:50:40;;;;;;;0.95;0.40;;;10.80;99.90;;;9.92;100.00;97050.41;6206821;23;20032;-68